createdAt,value
2023-01-07T00:03:04.586Z,98753.97
2023-01-07T00:08:08.750Z,98745.13
2023-01-07T00:13:11.567Z,98745.97
2023-01-07T00:18:14.534Z,98724.44
2023-01-07T00:23:18.933Z,98734.59
2023-01-07T00:28:21.657Z,98719.69
2023-01-07T00:33:28.196Z,98722.97
2023-01-07T00:38:32.741Z,98715.56
2023-01-07T00:43:35.449Z,98710.38
2023-01-07T00:48:38.267Z,98716.41
2023-01-07T00:53:42.977Z,98723.44
2023-01-07T00:58:46.585Z,98717.00
2023-01-07T01:03:50.163Z,98709.50
2023-01-07T01:08:54.327Z,98706.47
2023-01-07T01:13:57.202Z,98708.16
2023-01-07T01:19:00.011Z,98697.50
2023-01-07T01:24:04.378Z,98697.41
2023-01-07T01:29:07.177Z,98692.09
2023-01-07T01:34:10.199Z,98691.47
2023-01-07T01:39:14.545Z,98691.47
2023-01-07T01:44:37.445Z,98688.47
2023-01-07T01:49:47.821Z,98690.03
2023-01-07T01:54:58.044Z,98696.09
2023-01-07T02:00:01.364Z,98685.22
2023-01-07T02:05:07.046Z,98687.63
2023-01-07T02:10:17.221Z,98678.28
2023-01-07T02:15:28.872Z,98671.41
2023-01-07T02:20:50.573Z,98672.25
2023-01-07T02:26:29.113Z,98670.56
2023-01-07T02:31:55.889Z,98666.91
2023-01-07T02:37:06.592Z,98673.22
2023-01-07T02:42:23.016Z,98664.41
2023-01-07T02:47:34.995Z,98661.75
2023-01-07T02:52:38.231Z,98652.16
2023-01-07T02:58:01.683Z,98663.63
2023-01-07T03:03:20.453Z,98649.41
2023-01-07T03:08:42.860Z,98646.13
2023-01-07T03:13:52.021Z,98651.53
2023-01-07T03:19:01.954Z,98651.78
2023-01-07T03:24:07.805Z,98648.06
2023-01-07T03:29:14.359Z,98645.75
2023-01-07T03:34:22.975Z,98633.53
2023-01-07T03:39:31.695Z,98637.75
2023-01-07T03:44:34.621Z,98632.56
2023-01-07T03:49:38.933Z,98626.38
2023-01-07T03:54:42.833Z,98631.59
2023-01-07T03:59:45.772Z,98622.91
2023-01-07T04:04:50.058Z,98621.94
2023-01-07T04:09:54.215Z,98612.38
2023-01-07T04:14:59.154Z,98606.22
2023-01-07T04:20:04.144Z,98592.41
2023-01-07T04:25:08.017Z,98601.25
2023-01-07T04:30:12.236Z,98588.66
2023-01-07T04:35:16.875Z,98581.66
2023-01-07T04:40:20.363Z,98571.34
2023-01-07T04:45:25.391Z,98565.22
2023-01-07T04:50:30.033Z,98560.13
2023-01-07T04:55:33.397Z,98557.56
2023-01-07T05:00:37.624Z,98545.72
2023-01-07T05:05:42.814Z,98547.56
2023-01-07T05:10:45.919Z,98533.63
2023-01-07T05:15:49.617Z,98530.88
2023-01-07T05:20:54.145Z,98527.34
2023-01-07T05:25:57.148Z,98519.84
2023-01-07T05:31:01.205Z,98518.88
2023-01-07T05:36:08.312Z,98513.56
2023-01-07T05:41:11.241Z,98513.56
2023-01-07T05:46:14.339Z,98508.50
2023-01-07T05:51:18.698Z,98507.06
2023-01-07T05:56:21.524Z,98501.25
2023-01-07T06:01:24.544Z,98497.41
2023-01-07T06:06:28.676Z,98494.13
2023-01-07T06:11:31.423Z,98490.84
2023-01-07T06:16:34.254Z,98489.41
2023-01-07T06:21:38.730Z,98484.81
2023-01-07T06:26:41.639Z,98472.25
2023-01-07T06:31:44.400Z,98468.00
2023-01-07T06:36:48.594Z,98462.34
2023-01-07T06:41:51.353Z,98453.28
2023-01-07T06:46:54.261Z,98451.59
2023-01-07T06:51:58.377Z,98449.19
2023-01-07T06:57:01.348Z,98444.59
2023-01-07T07:02:05.761Z,98431.41
2023-01-07T07:07:10.338Z,98432.59
2023-01-07T07:12:13.466Z,98426.44
2023-01-07T07:17:17.770Z,98420.91
2023-01-07T07:22:21.853Z,98429.94
2023-01-07T07:27:24.695Z,98425.47
2023-01-07T07:32:28.558Z,98425.38
2023-01-07T07:37:33.620Z,98421.84
2023-01-07T07:43:10.725Z,98417.50
2023-01-07T07:47:59.316Z,98418.25
2023-01-07T07:53:03.713Z,98406.50
2023-01-07T07:58:07.257Z,98402.28
2023-01-07T08:03:11.760Z,98398.41
2023-01-07T08:08:16.135Z,98392.00
2023-01-07T08:13:19.557Z,98392.00
2023-01-07T08:18:23.763Z,98386.69
2023-01-07T08:23:28.608Z,98380.16
2023-01-07T08:28:33.430Z,98380.88
2023-01-07T08:33:39.645Z,98378.72
2023-01-07T08:38:44.339Z,98377.97
2023-01-07T08:43:47.275Z,98369.25
2023-01-07T08:48:50.014Z,98356.44
2023-01-07T08:53:57.264Z,98358.22
2023-01-07T08:59:00.472Z,98346.72
2023-01-07T09:04:03.257Z,98345.53
2023-01-07T09:09:07.630Z,98349.53
2023-01-07T09:14:10.652Z,98348.56
2023-01-07T09:19:13.570Z,98347.13
2023-01-07T09:24:17.908Z,98338.53
2023-01-07T09:29:20.637Z,98335.38
2023-01-07T09:34:24.917Z,98326.31
2023-01-07T09:39:29.122Z,98332.19
2023-01-07T09:44:55.096Z,98314.75
2023-01-07T09:50:02.999Z,98317.91
2023-01-07T09:55:17.769Z,98335.28
2023-01-07T10:00:23.648Z,98313.13
2023-01-07T10:05:37.571Z,98310.19
2023-01-07T10:10:51.347Z,98301.81
2023-01-07T10:16:02.185Z,98299.81
2023-01-07T10:21:15.732Z,98291.38
2023-01-07T10:26:31.648Z,98287.47
2023-01-07T10:31:35.960Z,98269.81
2023-01-07T10:36:56.020Z,98274.81
2023-01-07T10:42:09.646Z,98268.97
2023-01-07T10:47:22.976Z,98247.59
2023-01-07T10:52:34.797Z,98247.13
2023-01-07T10:57:39.775Z,98229.53
2023-01-07T11:02:47.504Z,98224.47
2023-01-07T11:07:54.258Z,98218.28
2023-01-07T11:13:01.433Z,98209.47
2023-01-07T11:18:05.621Z,98206.53
2023-01-07T11:23:20.646Z,98194.34
2023-01-07T11:28:28.896Z,98182.56
2023-01-07T11:34:02.958Z,98176.97
2023-01-07T11:39:10.843Z,98152.97
2023-01-07T11:44:17.580Z,98143.97
2023-01-07T11:49:25.118Z,98138.06
2023-01-07T11:54:31.295Z,98128.09
2023-01-07T11:59:35.561Z,98117.59
2023-01-07T12:04:38.486Z,98107.63
2023-01-07T12:09:44.154Z,98109.00
2023-01-07T12:14:49.740Z,98086.59
2023-01-07T12:20:29.740Z,98084.47
2023-01-07T12:25:52.584Z,98071.56
2023-01-07T12:31:14.772Z,98056.56
2023-01-07T12:36:26.401Z,98049.56
2023-01-07T12:41:33.388Z,98047.44
2023-01-07T12:46:41.995Z,98035.66
2023-01-07T12:51:51.395Z,98028.47
2023-01-07T12:56:59.698Z,98028.19
2023-01-07T13:02:16.673Z,98012.63
2023-01-07T13:07:26.716Z,98008.00
2023-01-07T13:12:46.261Z,98002.00
2023-01-07T13:17:54.223Z,97999.31
2023-01-07T13:22:58.034Z,97998.63
2023-01-07T13:28:18.362Z,97992.44
2023-01-07T13:33:28.405Z,97983.31
2023-01-07T13:38:58.817Z,97972.38
2023-01-07T13:44:23.944Z,97980.78
2023-01-07T13:49:30.893Z,97983.03
2023-01-07T13:55:03.741Z,97982.75
2023-01-07T14:00:28.347Z,97966.94
2023-01-07T14:05:36.314Z,97960.34
2023-01-07T14:10:39.240Z,97955.41
2023-01-07T14:16:03.941Z,97950.53
2023-01-07T14:21:18.778Z,97951.78
2023-01-07T14:26:35.357Z,97949.56
2023-01-07T14:31:38.551Z,97938.22
2023-01-07T14:37:14.937Z,97930.06
2023-01-07T14:42:49.051Z,97927.28
2023-01-07T14:47:55.448Z,97927.41
2023-01-07T14:53:33.809Z,97930.91
2023-01-07T14:59:04.193Z,97922.94
2023-01-07T15:04:41.596Z,97930.63
2023-01-07T15:10:09.043Z,97932.88
2023-01-07T15:15:32.810Z,97937.78
2023-01-07T15:20:49.545Z,97937.78
2023-01-07T15:26:01.058Z,97930.22
2023-01-07T15:31:13.562Z,97923.47
2023-01-07T15:36:17.860Z,97917.31
2023-01-07T15:41:29.856Z,97919.13
2023-01-07T15:46:33.786Z,97923.19
2023-01-07T15:51:40.103Z,97916.03
2023-01-07T15:56:45.309Z,97911.41
2023-01-07T16:01:50.718Z,97908.31
2023-01-07T16:06:57.870Z,97906.59
2023-01-07T16:12:02.056Z,97888.13
2023-01-07T16:17:16.897Z,97881.53
2023-01-07T16:22:23.170Z,97880.28
2023-01-07T16:27:30.458Z,97871.59
2023-01-07T16:32:33.973Z,97863.16
2023-01-07T16:37:41.867Z,97857.56
2023-01-07T16:42:49.462Z,97854.75
2023-01-07T16:48:14.555Z,97851.09
2023-01-07T16:53:26.209Z,97847.13
2023-01-07T16:58:37.903Z,97843.06
2023-01-07T17:03:48.818Z,97840.81
2023-01-07T17:08:55.404Z,97833.25
2023-01-07T17:14:00.038Z,97834.78
2023-01-07T17:19:36.190Z,97824.09
2023-01-07T17:24:50.761Z,97824.28
2023-01-07T17:29:55.923Z,97830.78
2023-01-07T17:35:03.804Z,97826.06
2023-01-07T17:40:09.229Z,97843.66
2023-01-07T17:45:22.452Z,97842.72
2023-01-07T17:50:27.948Z,97824.66
2023-01-07T17:55:33.040Z,97822.81
2023-01-07T18:00:37.311Z,97832.25
2023-01-07T18:05:41.258Z,97837.09
2023-01-07T18:11:03.018Z,97822.06
2023-01-07T18:16:08.396Z,97815.59
2023-01-07T18:21:12.874Z,97817.78
2023-01-07T18:26:16.726Z,97815.53
2023-01-07T18:31:21.199Z,97821.66
2023-01-07T18:36:24.041Z,97807.69
2023-01-07T18:41:27.788Z,97804.91
2023-01-07T18:46:32.448Z,97816.22
2023-01-07T18:51:35.336Z,97807.44
2023-01-07T18:56:38.172Z,97798.50
2023-01-07T19:01:42.683Z,97774.66
2023-01-07T19:06:45.688Z,97751.75
2023-01-07T19:11:48.413Z,97758.75
2023-01-07T19:16:54.636Z,97762.84
2023-01-07T19:21:57.964Z,97777.53
2023-01-07T19:27:01.049Z,97783.28
2023-01-07T19:32:05.727Z,97778.69
2023-01-07T19:37:12.849Z,97770.56
2023-01-07T19:42:16.106Z,97777.44
2023-01-07T19:47:20.190Z,97785.03
2023-01-07T19:52:23.096Z,97769.81
2023-01-07T19:57:25.861Z,97746.53
2023-01-07T20:02:30.122Z,97739.16
2023-01-07T20:07:35.004Z,97732.72
2023-01-07T20:18:05.800Z,97724.72
2023-01-07T20:23:08.636Z,97735.75
2023-01-07T20:28:12.109Z,97737.19
2023-01-07T20:33:17.143Z,97743.06
2023-01-07T20:38:19.883Z,97731.66
2023-01-07T20:43:23.002Z,97741.03
2023-01-07T20:48:27.600Z,97727.63
2023-01-07T20:53:31.074Z,97721.34
2023-01-07T20:58:37.243Z,97706.56
2023-01-07T21:03:42.380Z,97701.28
2023-01-07T21:08:46.040Z,97705.19
2023-01-07T21:13:50.390Z,97699.84
2023-01-07T21:18:55.982Z,97698.03
2023-01-07T21:23:59.179Z,97697.75
2023-01-07T21:29:01.995Z,97681.66
2023-01-07T21:34:07.257Z,97675.66
2023-01-07T21:39:13.580Z,97678.91
2023-01-07T21:44:16.468Z,97682.66
2023-01-07T21:49:20.728Z,97681.00
2023-01-07T21:54:23.736Z,97675.41
2023-01-07T21:59:27.070Z,97685.75
2023-01-07T22:04:31.516Z,97675.00
2023-01-07T22:09:34.446Z,97669.69
2023-01-07T22:14:37.277Z,97662.28
2023-01-07T22:19:41.487Z,97658.63
2023-01-07T22:24:44.310Z,97661.00
2023-01-07T22:29:47.223Z,97671.19
2023-01-07T22:34:51.354Z,97668.41
2023-01-07T22:39:57.994Z,97663.94
2023-01-07T22:45:03.783Z,97662.81
2023-01-07T22:50:09.465Z,97669.81
2023-01-07T22:55:13.274Z,97658.47
2023-01-07T23:00:38.075Z,97652.44
2023-01-07T23:05:42.235Z,97651.47
2023-01-07T23:10:45.935Z,97658.34
2023-01-07T23:15:48.822Z,97655.38
2023-01-07T23:20:52.978Z,97639.44
2023-01-07T23:25:57.027Z,97627.66
2023-01-07T23:31:01.763Z,97610.88
2023-01-07T23:36:07.988Z,97622.22
2023-01-07T23:41:12.481Z,97616.03
2023-01-07T23:46:15.407Z,97614.06
2023-01-07T23:51:21.486Z,97603.19
2023-01-07T23:56:24.327Z,97588.72
